createdAt,value
2019-01-26T00:00:39.561Z,14.33
2019-01-26T00:03:13.712Z,12.70
2019-01-26T00:05:44.003Z,16.20
2019-01-26T00:08:14.265Z,14.17
2019-01-26T00:10:44.462Z,11.37
2019-01-26T00:13:14.688Z,10.80
2019-01-26T00:15:45.022Z,13.90
2019-01-26T00:18:15.329Z,11.90
2019-01-26T00:20:47.629Z,10.90
2019-01-26T00:23:17.922Z,17.17
2019-01-26T00:25:48.259Z,11.77
2019-01-26T00:28:18.931Z,13.67
2019-01-26T00:30:49.436Z,13.90
2019-01-26T00:33:19.729Z,11.10
2019-01-26T00:35:50.625Z,18.10
2019-01-26T00:38:21.022Z,13.27
2019-01-26T00:40:51.299Z,11.80
2019-01-26T00:43:23.823Z,13.93
2019-01-26T00:45:54.230Z,9.80
2019-01-26T00:48:24.545Z,13.47
2019-01-26T00:50:55.214Z,12.67
2019-01-26T00:53:26.198Z,9.50
2019-01-26T00:55:56.717Z,10.73
2019-01-26T00:58:27.263Z,10.60
2019-01-26T01:00:58.121Z,13.53
2019-01-26T01:03:28.972Z,9.60
2019-01-26T01:06:00.202Z,11.07
2019-01-26T01:08:30.551Z,11.17
2019-01-26T01:11:01.011Z,11.73
2019-01-26T01:13:36.439Z,10.47
2019-01-26T01:16:07.106Z,10.60
2019-01-26T01:18:37.347Z,11.33
2019-01-26T01:21:10.907Z,10.97
2019-01-26T01:23:41.177Z,9.07
2019-01-26T01:26:11.682Z,12.40
2019-01-26T01:28:42.082Z,11.87
2019-01-26T01:31:12.486Z,11.73
2019-01-26T01:33:42.839Z,12.70
2019-01-26T01:36:13.557Z,11.77
2019-01-26T01:38:45.865Z,11.83
2019-01-26T01:41:19.053Z,11.60
2019-01-26T01:43:49.264Z,16.23
2019-01-26T01:46:19.589Z,12.63
2019-01-26T01:48:50.698Z,10.57
2019-01-26T01:51:21.054Z,14.00
2019-01-26T01:53:51.247Z,11.93
2019-01-26T01:56:21.619Z,12.43
2019-01-26T01:58:52.001Z,11.93
2019-01-26T02:01:23.230Z,17.70
2019-01-26T02:03:54.260Z,14.40
2019-01-26T02:06:24.501Z,14.23
2019-01-26T02:08:54.926Z,13.43
2019-01-26T02:11:28.215Z,13.33
2019-01-26T02:13:58.256Z,18.57
2019-01-26T02:16:28.354Z,18.77
2019-01-26T02:18:58.662Z,14.20
2019-01-26T02:21:29.367Z,17.87
2019-01-26T02:23:59.502Z,13.80
2019-01-26T02:26:29.904Z,16.00
2019-01-26T02:29:00.852Z,21.80
2019-01-26T02:31:31.146Z,17.63
2019-01-26T02:34:01.433Z,20.93
2019-01-26T02:36:31.565Z,20.40
2019-01-26T02:39:02.229Z,19.00
2019-01-26T02:41:33.096Z,19.67
2019-01-26T02:44:03.428Z,19.10
2019-01-26T02:46:33.747Z,17.63
2019-01-26T02:49:06.658Z,18.47
2019-01-26T02:51:36.908Z,20.30
2019-01-26T02:54:07.580Z,20.87
2019-01-26T02:56:38.089Z,20.60
2019-01-26T02:59:08.255Z,19.50
2019-01-26T03:01:38.656Z,20.80
2019-01-26T03:04:09.848Z,20.97
2019-01-26T03:06:40.149Z,22.23
2019-01-26T03:09:11.215Z,24.90
2019-01-26T03:11:41.607Z,20.93
2019-01-26T03:14:12.002Z,21.83
2019-01-26T03:16:42.424Z,20.70
2019-01-26T03:19:12.825Z,22.70
2019-01-26T03:21:43.433Z,21.80
2019-01-26T03:24:14.073Z,25.87
2019-01-26T03:26:44.407Z,20.57
2019-01-26T03:29:15.262Z,20.20
2019-01-26T03:31:45.428Z,22.17
2019-01-26T03:34:15.944Z,16.27
2019-01-26T03:36:46.657Z,19.30
2019-01-26T03:39:17.557Z,20.53
2019-01-26T03:41:48.495Z,19.27
2019-01-26T03:44:18.968Z,19.70
2019-01-26T03:46:49.375Z,20.93
2019-01-26T03:49:20.050Z,22.93
2019-01-26T03:51:50.424Z,23.70
2019-01-26T03:54:20.813Z,23.27
2019-01-26T03:56:56.371Z,27.40
2019-01-26T03:59:26.891Z,25.23
2019-01-26T04:01:57.223Z,26.00
2019-01-26T04:04:28.199Z,23.93
2019-01-26T04:06:58.928Z,22.80
2019-01-26T04:09:29.336Z,27.20
2019-01-26T04:11:59.863Z,21.43
2019-01-26T04:14:30.145Z,28.30
2019-01-26T04:17:00.356Z,23.03
2019-01-26T04:19:31.420Z,26.37
2019-01-26T04:22:01.791Z,25.97
2019-01-26T04:24:32.240Z,26.00
2019-01-26T04:27:02.794Z,26.80
2019-01-26T04:29:33.345Z,24.80
2019-01-26T04:32:03.988Z,24.37
2019-01-26T04:34:35.214Z,23.80
2019-01-26T04:37:05.937Z,32.03
2019-01-26T04:39:40.708Z,33.80
2019-01-26T04:42:11.061Z,23.40
2019-01-26T04:44:41.673Z,23.00
2019-01-26T04:47:12.182Z,27.00
2019-01-26T04:49:43.362Z,25.67
2019-01-26T04:52:13.643Z,30.60
2019-01-26T04:54:44.028Z,26.30
2019-01-26T04:57:19.117Z,27.70
2019-01-26T04:59:49.632Z,26.60
2019-01-26T05:02:20.184Z,24.00
2019-01-26T05:04:52.700Z,21.67
2019-01-26T05:07:23.025Z,28.57
2019-01-26T05:09:53.628Z,30.73
2019-01-26T05:12:24.544Z,21.87
2019-01-26T05:14:55.327Z,23.90
2019-01-26T05:17:25.737Z,23.57
2019-01-26T05:19:56.694Z,20.17
2019-01-26T05:22:26.993Z,22.80
2019-01-26T05:24:57.732Z,24.70
2019-01-26T05:27:30.054Z,24.63
2019-01-26T05:30:00.731Z,20.63
2019-01-26T05:32:30.989Z,22.90
2019-01-26T05:35:01.878Z,20.97
2019-01-26T05:37:32.160Z,24.17
2019-01-26T05:40:02.550Z,23.23
2019-01-26T05:42:33.003Z,24.27
2019-01-26T05:45:03.893Z,22.03
2019-01-26T05:47:34.429Z,20.13
2019-01-26T05:50:05.369Z,24.30
2019-01-26T05:52:36.593Z,22.10
2019-01-26T05:55:07.634Z,23.03
2019-01-26T05:57:37.944Z,18.20
2019-01-26T06:00:10.540Z,23.50
2019-01-26T06:02:40.906Z,20.20
2019-01-26T06:05:12.124Z,23.20
2019-01-26T06:07:42.544Z,22.23
2019-01-26T06:10:14.077Z,22.90
2019-01-26T06:12:44.929Z,23.17
2019-01-26T06:15:15.620Z,20.60
2019-01-26T06:17:46.133Z,23.40
2019-01-26T06:20:16.928Z,23.43
2019-01-26T06:22:47.493Z,18.77
2019-01-26T06:25:19.471Z,24.30
2019-01-26T06:27:50.085Z,23.17
2019-01-26T06:30:22.999Z,22.93
2019-01-26T06:32:54.017Z,21.53
2019-01-26T06:35:24.809Z,26.57
2019-01-26T06:37:55.972Z,24.73
2019-01-26T06:40:26.669Z,27.50
2019-01-26T06:42:57.174Z,23.27
2019-01-26T06:45:30.780Z,20.40
2019-01-26T06:48:07.732Z,23.97
2019-01-26T06:50:38.563Z,23.13
2019-01-26T06:53:09.037Z,25.27
2019-01-26T06:55:39.391Z,21.70
2019-01-26T06:58:10.299Z,26.20
2019-01-26T07:00:40.853Z,25.70
2019-01-26T07:03:11.196Z,27.30
2019-01-26T07:06:03.318Z,24.30
2019-01-26T07:08:34.045Z,19.10
2019-01-26T07:11:04.545Z,24.17
2019-01-26T07:13:35.314Z,22.60
2019-01-26T07:16:06.153Z,23.30
2019-01-26T07:18:36.613Z,26.03
2019-01-26T07:21:07.205Z,26.80
2019-01-26T07:23:37.481Z,23.77
2019-01-26T07:26:08.201Z,19.80
2019-01-26T07:28:38.747Z,25.73
2019-01-26T07:31:09.141Z,19.50
2019-01-26T07:33:39.376Z,24.87
2019-01-26T07:36:11.331Z,25.10
2019-01-26T07:38:43.078Z,24.70
2019-01-26T07:41:13.439Z,27.20
2019-01-26T07:43:47.044Z,21.30
2019-01-26T07:46:17.861Z,20.93
2019-01-26T07:48:48.316Z,26.20
2019-01-26T07:51:19.036Z,20.57
2019-01-26T07:53:49.372Z,22.57
2019-01-26T07:56:21.066Z,24.37
2019-01-26T07:58:54.208Z,15.63
2019-01-26T08:01:25.810Z,20.40
2019-01-26T08:03:58.525Z,15.33
2019-01-26T08:06:30.329Z,18.23
2019-01-26T08:09:00.916Z,17.53
2019-01-26T08:11:34.362Z,17.70
2019-01-26T08:14:13.818Z,18.50
2019-01-26T08:16:44.364Z,17.60
2019-01-26T08:19:14.657Z,18.83
2019-01-26T08:21:45.074Z,16.40
2019-01-26T08:24:17.541Z,14.70
2019-01-26T08:26:47.877Z,15.80
2019-01-26T08:29:19.979Z,18.03
2019-01-26T08:31:50.454Z,16.90
2019-01-26T08:34:20.585Z,16.70
2019-01-26T08:36:51.281Z,17.87
2019-01-26T08:39:23.050Z,15.30
2019-01-26T08:41:53.429Z,16.93
2019-01-26T08:44:23.724Z,16.67
2019-01-26T08:46:54.111Z,16.33
2019-01-26T08:49:26.276Z,15.77
2019-01-26T08:52:03.567Z,20.47
2019-01-26T08:54:33.826Z,18.00
2019-01-26T08:57:04.229Z,16.23
2019-01-26T08:59:35.951Z,13.90
2019-01-26T09:02:25.594Z,18.83
2019-01-26T09:04:57.704Z,14.27
2019-01-26T09:07:29.640Z,16.10
2019-01-26T09:10:04.121Z,16.40
2019-01-26T09:12:34.873Z,20.97
2019-01-26T09:15:05.872Z,21.30
2019-01-26T09:17:36.615Z,18.97
2019-01-26T09:20:11.771Z,17.17
2019-01-26T09:22:46.205Z,21.87
2019-01-26T09:25:16.512Z,17.07
2019-01-26T09:27:50.243Z,17.47
2019-01-26T09:30:21.215Z,16.53
2019-01-26T09:32:51.764Z,16.10
2019-01-26T09:35:22.129Z,24.30
2019-01-26T09:37:52.960Z,21.60
2019-01-26T09:40:26.992Z,17.83
2019-01-26T09:42:57.547Z,16.30
2019-01-26T09:45:27.917Z,15.10
2019-01-26T09:47:58.664Z,14.67
2019-01-26T09:50:29.193Z,18.80
2019-01-26T09:52:59.546Z,14.53
2019-01-26T09:55:35.657Z,19.23
2019-01-26T09:58:08.397Z,19.20
2019-01-26T10:00:39.636Z,17.53
2019-01-26T10:03:13.342Z,18.30
2019-01-26T10:05:46.429Z,18.57
2019-01-26T10:08:17.601Z,18.10
2019-01-26T10:10:48.766Z,18.30
2019-01-26T10:13:20.236Z,17.60
2019-01-26T10:15:52.354Z,17.50
2019-01-26T10:18:23.674Z,18.27
2019-01-26T10:20:56.348Z,19.70
2019-01-26T10:23:26.858Z,18.10
2019-01-26T10:25:57.305Z,18.90
2019-01-26T10:28:32.339Z,22.07
2019-01-26T10:31:05.944Z,20.23
2019-01-26T10:33:39.092Z,18.70
2019-01-26T10:36:32.082Z,21.77
2019-01-26T10:39:14.781Z,26.27
2019-01-26T10:42:02.900Z,24.10
2019-01-26T10:44:35.746Z,23.00
2019-01-26T10:47:08.352Z,21.87
2019-01-26T10:49:39.858Z,21.20
2019-01-26T10:52:10.758Z,23.00
2019-01-26T10:54:42.209Z,24.73
2019-01-26T10:57:18.914Z,20.93
2019-01-26T10:59:50.788Z,21.80
2019-01-26T11:02:21.519Z,22.80
2019-01-26T11:04:53.037Z,20.43
2019-01-26T11:07:28.576Z,19.47
2019-01-26T11:10:03.613Z,21.83
2019-01-26T11:12:34.124Z,23.53
2019-01-26T11:15:05.108Z,25.30
2019-01-26T11:17:41.261Z,21.83
2019-01-26T11:20:13.227Z,18.70
2019-01-26T11:22:44.130Z,19.20
2019-01-26T11:25:15.128Z,17.80
2019-01-26T11:27:45.845Z,17.70
2019-01-26T11:30:19.888Z,16.40
2019-01-26T11:32:56.329Z,16.53
2019-01-26T11:35:26.880Z,20.67
2019-01-26T11:37:57.510Z,22.13
2019-01-26T11:40:29.356Z,23.17
2019-01-26T11:43:14.428Z,21.73
2019-01-26T11:45:55.927Z,20.50
2019-01-26T11:48:33.164Z,20.93
2019-01-26T11:51:16.725Z,34.10
2019-01-26T11:53:48.703Z,26.20
2019-01-26T11:56:31.751Z,22.67
2019-01-26T11:59:04.405Z,23.70
2019-01-26T12:02:12.415Z,27.57
2019-01-26T12:05:02.605Z,28.00
2019-01-26T12:07:37.585Z,23.70
2019-01-26T12:10:11.499Z,25.13
2019-01-26T12:12:41.739Z,26.10
2019-01-26T12:15:15.000Z,22.00
2019-01-26T12:17:45.258Z,24.00
2019-01-26T12:20:18.273Z,21.30
2019-01-26T12:22:48.768Z,23.43
2019-01-26T12:25:20.205Z,23.30
2019-01-26T12:27:51.101Z,29.43
2019-01-26T12:30:23.037Z,27.40
2019-01-26T12:32:58.787Z,24.10
2019-01-26T12:35:32.269Z,25.43
2019-01-26T12:38:02.873Z,24.90
2019-01-26T12:40:37.353Z,18.07
2019-01-26T12:43:07.937Z,19.43
2019-01-26T12:45:38.262Z,27.07
2019-01-26T12:48:08.788Z,26.00
2019-01-26T12:50:39.980Z,16.43
2019-01-26T12:53:11.482Z,22.47
2019-01-26T12:55:44.877Z,26.77
2019-01-26T12:58:18.387Z,18.07
2019-01-26T13:00:48.810Z,22.97
2019-01-26T13:03:20.813Z,21.33
2019-01-26T13:05:55.119Z,18.40
2019-01-26T13:08:25.560Z,19.63
2019-01-26T13:10:59.856Z,18.73
2019-01-26T13:13:32.332Z,18.83
2019-01-26T13:16:04.533Z,15.07
2019-01-26T13:18:44.392Z,17.13
2019-01-26T13:21:15.376Z,15.77
2019-01-26T13:23:45.933Z,15.00
2019-01-26T13:26:16.202Z,14.37
2019-01-26T13:28:46.711Z,14.07
2019-01-26T13:31:18.699Z,17.47
2019-01-26T13:33:49.143Z,15.93
2019-01-26T13:36:20.023Z,15.60
2019-01-26T13:38:50.596Z,16.10
2019-01-26T13:41:21.037Z,18.13
2019-01-26T13:43:54.535Z,16.63
2019-01-26T13:46:33.430Z,19.20
2019-01-26T13:49:03.988Z,18.83
2019-01-26T13:51:34.588Z,13.83
2019-01-26T13:54:05.490Z,15.63
2019-01-26T13:56:36.059Z,18.90
2019-01-26T13:59:09.119Z,26.53
2019-01-26T14:01:39.852Z,14.50
2019-01-26T14:04:11.441Z,12.97
2019-01-26T14:06:42.157Z,13.43
2019-01-26T14:09:12.565Z,18.60
2019-01-26T14:11:42.964Z,13.70
2019-01-26T14:14:27.044Z,12.90
2019-01-26T14:16:59.194Z,16.70
2019-01-26T14:19:29.723Z,12.83
2019-01-26T14:22:01.881Z,17.30
2019-01-26T14:24:32.368Z,14.47
2019-01-26T14:27:03.978Z,17.70
2019-01-26T14:29:34.243Z,18.33
2019-01-26T14:32:19.253Z,21.90
2019-01-26T14:34:51.304Z,20.07
2019-01-26T14:37:21.743Z,23.77
2019-01-26T14:39:52.593Z,23.07
2019-01-26T14:42:24.594Z,25.27
2019-01-26T14:44:55.229Z,27.70
2019-01-26T14:47:26.315Z,27.33
2019-01-26T14:49:58.572Z,35.03
2019-01-26T14:55:01.213Z,28.07
2019-01-26T14:57:38.470Z,32.93
2019-01-26T15:00:21.715Z,25.03
2019-01-26T15:02:52.695Z,33.60
2019-01-26T15:05:24.005Z,31.00
2019-01-26T15:07:58.622Z,28.77
2019-01-26T15:10:29.053Z,28.37
2019-01-26T15:13:00.218Z,30.57
2019-01-26T15:15:31.000Z,35.57
2019-01-26T15:18:01.458Z,36.00
2019-01-26T15:20:34.292Z,37.47
2019-01-26T15:23:05.512Z,38.63
2019-01-26T15:25:41.372Z,34.80
2019-01-26T15:28:19.697Z,31.97
2019-01-26T15:30:50.498Z,33.47
2019-01-26T15:33:21.266Z,28.63
2019-01-26T15:35:54.693Z,29.40
2019-01-26T15:38:25.024Z,27.90
2019-01-26T15:40:55.653Z,34.13
2019-01-26T15:43:34.414Z,29.40
2019-01-26T15:46:05.101Z,33.43
2019-01-26T15:48:35.644Z,35.47
2019-01-26T15:51:10.783Z,32.37
2019-01-26T15:53:41.143Z,33.20
2019-01-26T15:56:11.410Z,27.03
2019-01-26T15:58:56.485Z,29.37
2019-01-26T16:01:26.803Z,35.77
2019-01-26T16:03:59.428Z,30.93
2019-01-26T16:06:30.529Z,34.40
2019-01-26T16:09:04.697Z,28.40
2019-01-26T16:11:35.700Z,29.20
2019-01-26T16:14:09.640Z,30.30
2019-01-26T16:16:46.426Z,25.40
2019-01-26T16:19:18.879Z,31.30
2019-01-26T16:21:50.074Z,27.37
2019-01-26T16:24:20.560Z,26.77
2019-01-26T16:26:51.649Z,28.80
2019-01-26T16:29:22.202Z,30.20
2019-01-26T16:31:55.302Z,27.47
2019-01-26T16:34:26.545Z,28.63
2019-01-26T16:36:56.848Z,27.90
2019-01-26T16:39:27.199Z,25.33
2019-01-26T16:42:01.499Z,24.70
2019-01-26T16:44:32.192Z,27.57
2019-01-26T16:47:05.728Z,24.73
2019-01-26T16:49:35.963Z,23.60
2019-01-26T16:52:13.949Z,21.70
2019-01-26T16:54:41.534Z,27.20
2019-01-26T16:57:21.161Z,26.20
2019-01-26T16:59:51.750Z,22.23
2019-01-26T17:02:22.207Z,22.00
2019-01-26T17:04:52.699Z,21.33
2019-01-26T17:07:23.332Z,19.80
2019-01-26T17:09:53.837Z,24.00
2019-01-26T17:12:24.171Z,24.70
2019-01-26T17:14:54.755Z,20.73
2019-01-26T17:17:28.304Z,25.00
2019-01-26T17:19:59.869Z,23.90
2019-01-26T17:22:30.186Z,21.97
2019-01-26T17:25:02.871Z,22.57
2019-01-26T17:27:38.540Z,26.97
2019-01-26T17:30:12.345Z,30.07
2019-01-26T17:32:43.106Z,26.10
2019-01-26T17:35:16.478Z,29.13
2019-01-26T17:37:47.654Z,26.27
2019-01-26T17:40:20.190Z,29.43
2019-01-26T17:42:54.076Z,28.40
2019-01-26T17:45:25.025Z,34.00
2019-01-26T17:48:01.943Z,30.70
2019-01-26T17:50:32.301Z,31.20
2019-01-26T17:53:25.771Z,37.33
2019-01-26T17:56:15.594Z,32.00
2019-01-26T17:58:46.621Z,31.10
2019-01-26T18:01:20.155Z,33.40
2019-01-26T18:03:50.620Z,35.70
2019-01-26T18:06:23.183Z,28.93
2019-01-26T18:09:00.935Z,35.13
2019-01-26T18:11:32.739Z,31.37
2019-01-26T18:14:09.015Z,35.93
2019-01-26T18:16:39.351Z,33.00
2019-01-26T18:19:10.067Z,36.73
2019-01-26T18:21:42.006Z,31.77
2019-01-26T18:24:14.109Z,34.33
2019-01-26T18:26:44.505Z,37.17
2019-01-26T18:29:14.736Z,35.57
2019-01-26T18:31:46.820Z,36.63
2019-01-26T18:34:17.465Z,37.17
2019-01-26T18:36:48.065Z,33.13
2019-01-26T18:39:22.460Z,37.67
2019-01-26T18:41:52.846Z,46.40
2019-01-26T18:44:25.558Z,38.23
2019-01-26T18:46:59.668Z,39.00
2019-01-26T18:49:30.243Z,42.30
2019-01-26T18:52:00.846Z,41.27
2019-01-26T18:54:31.251Z,37.50
2019-01-26T18:57:20.555Z,41.30
2019-01-26T18:59:51.636Z,37.70
2019-01-26T19:02:26.086Z,43.93
2019-01-26T19:05:02.174Z,33.47
2019-01-26T19:07:33.788Z,34.87
2019-01-26T19:10:07.248Z,38.57
2019-01-26T19:12:41.810Z,37.63
2019-01-26T19:15:21.211Z,36.53
2019-01-26T19:17:58.540Z,31.67
2019-01-26T19:20:30.427Z,31.20
2019-01-26T19:23:02.137Z,29.50
2019-01-26T19:25:35.895Z,33.27
2019-01-26T19:28:06.759Z,32.63
2019-01-26T19:30:37.216Z,30.23
2019-01-26T19:33:10.817Z,31.47
2019-01-26T19:35:46.819Z,33.00
2019-01-26T19:38:19.026Z,31.27
2019-01-26T19:40:50.135Z,32.97
2019-01-26T19:43:23.452Z,32.13
2019-01-26T19:45:54.030Z,32.03
2019-01-26T19:48:26.199Z,32.10
2019-01-26T19:50:56.630Z,32.00
2019-01-26T19:53:27.497Z,30.27
2019-01-26T19:56:01.002Z,32.73
2019-01-26T19:58:31.572Z,33.30
2019-01-26T20:01:02.189Z,33.10
2019-01-26T20:03:32.690Z,33.73
2019-01-26T20:06:03.311Z,34.57
2019-01-26T20:08:36.907Z,31.77
2019-01-26T20:11:07.429Z,34.53
2019-01-26T20:13:39.838Z,33.63
2019-01-26T20:16:13.058Z,33.80
2019-01-26T20:18:43.866Z,33.13
2019-01-26T20:21:19.754Z,36.73
2019-01-26T20:23:55.237Z,36.30
2019-01-26T20:26:26.429Z,33.40
2019-01-26T20:29:02.107Z,31.67
2019-01-26T20:31:38.468Z,33.30
2019-01-26T20:34:12.710Z,35.20
2019-01-26T20:36:46.636Z,32.30
2019-01-26T20:39:16.972Z,32.33
2019-01-26T20:41:47.300Z,30.67
2019-01-26T20:44:20.933Z,30.63
2019-01-26T20:46:52.553Z,26.97
2019-01-26T20:49:22.887Z,24.40
2019-01-26T20:51:56.178Z,25.50
2019-01-26T20:54:37.426Z,25.30
2019-01-26T20:57:23.327Z,23.40
2019-01-26T20:59:55.648Z,28.30
2019-01-26T21:02:39.037Z,25.90
2019-01-26T21:05:14.266Z,23.17
2019-01-26T21:07:51.760Z,22.87
2019-01-26T21:10:24.570Z,24.17
2019-01-26T21:12:58.356Z,25.23
2019-01-26T21:15:29.086Z,24.20
2019-01-26T21:18:03.934Z,23.83
2019-01-26T21:20:34.233Z,25.10
2019-01-26T21:23:04.775Z,22.60
2019-01-26T21:25:35.577Z,24.27
2019-01-26T21:28:06.567Z,25.70
2019-01-26T21:30:36.811Z,24.53
2019-01-26T21:33:08.936Z,28.40
2019-01-26T21:35:40.632Z,23.40
2019-01-26T21:38:14.924Z,21.60
2019-01-26T21:40:48.179Z,20.83
2019-01-26T21:43:20.151Z,22.43
2019-01-26T21:45:53.717Z,22.97
2019-01-26T21:48:28.953Z,24.80
2019-01-26T21:50:59.315Z,23.83
2019-01-26T21:53:32.690Z,22.70
2019-01-26T21:56:03.165Z,22.93
2019-01-26T21:58:33.492Z,24.53
2019-01-26T22:01:06.327Z,26.00
2019-01-26T22:03:37.353Z,25.10
2019-01-26T22:06:08.097Z,27.43
2019-01-26T22:08:38.985Z,29.10
2019-01-26T22:11:09.283Z,25.43
2019-01-26T22:13:39.921Z,30.07
2019-01-26T22:16:17.758Z,28.90
2019-01-26T22:18:49.453Z,26.13
2019-01-26T22:21:19.716Z,30.40
2019-01-26T22:23:54.230Z,31.47
2019-01-26T22:26:24.784Z,28.40
2019-01-26T22:28:55.010Z,29.40
2019-01-26T22:31:29.889Z,27.53
2019-01-26T22:34:00.340Z,31.70
2019-01-26T22:36:30.674Z,30.40
2019-01-26T22:39:04.169Z,30.40
2019-01-26T22:41:34.726Z,31.30
2019-01-26T22:44:05.362Z,34.53
2019-01-26T22:46:35.621Z,33.30
2019-01-26T22:49:06.800Z,34.33
2019-01-26T22:51:37.233Z,30.73
2019-01-26T22:54:07.709Z,27.77
2019-01-26T22:56:38.560Z,24.70
2019-01-26T22:59:08.929Z,29.53
2019-01-26T23:01:41.740Z,27.80
2019-01-26T23:04:23.485Z,24.90
2019-01-26T23:07:37.008Z,26.20
2019-01-26T23:10:31.500Z,26.70
2019-01-26T23:13:26.474Z,27.20
2019-01-26T23:16:55.096Z,21.53
2019-01-26T23:19:32.668Z,18.80
2019-01-26T23:22:46.741Z,18.70
2019-01-26T23:26:07.242Z,19.57
2019-01-26T23:29:07.826Z,16.83
2019-01-26T23:31:40.868Z,16.47
2019-01-26T23:34:11.664Z,15.63
2019-01-26T23:36:42.355Z,14.70
2019-01-26T23:39:16.766Z,14.50
2019-01-26T23:41:46.988Z,14.90
2019-01-26T23:44:17.868Z,12.63
2019-01-26T23:46:48.483Z,16.73
2019-01-26T23:49:21.769Z,13.47
2019-01-26T23:51:52.293Z,14.33
2019-01-26T23:54:22.556Z,10.40
2019-01-26T23:56:59.513Z,9.20
2019-01-26T23:59:30.000Z,9.63
